Decoded Metar for PANC (ANCHORAGE in AK, USA) (IATA:ANC) | Meteo·Mobile Aviation Weather
aviador You're here:

PANC Decoded Metar

ANCHORAGE in AK, USA
Report Time2019-07-16 09:53:00
UTC Time2019-07-16 10:02:36
Flight Rules vfr VFR
Wind130° at 09 kt
W.Decomp.*RWY 15: 7.0 kt HW 5.7 kt LCW
RWY 07: 6.8 kt HW 5.9 kt RCW
Visibility9999 m
Phenomena:N/A
Clouds:Few 050 Hf
Scattered 070 Hf
Broken 090 Hf
Broken 200 Hf
Expected CloudBase > 2,400 ft AGL from Temp-Dew spread
Ceiling9,000 ft
Temp16°C (ISA +1)
Dew Point10°C (68% RH)
AAT12.8°C
QNH1007 hPa
Density Alt643 ft
Elevation125 ft
Report Wrong Elevation
Raw Report
PANC 160953Z 13009KT 10SM FEW050 SCT070 BKN090 BKN200 16/10 A2975
RMK AO2 SLP073 T01560100 $=

Extra information for PANC:More info

Metar Taf Metar & Taf Last 4 Metars F.Rules Stats Wind Profile Meteogram Temp Stats Airport Information Weather charts Add Link Nearby VenuesMetar ALERT Operation Metar Decoded Social comments

AIRNAV info for PANC
Anchorage Webcam N